createdAt,value
2019-06-15T00:01:45.815Z,22.10
2019-06-15T00:04:19.965Z,22.01
2019-06-15T00:06:53.907Z,22.00
2019-06-15T00:09:29.168Z,21.98
2019-06-15T00:12:02.966Z,22.15
2019-06-15T00:14:36.978Z,21.97
2019-06-15T00:17:10.984Z,21.94
2019-06-15T00:19:44.876Z,21.89
2019-06-15T00:22:18.546Z,22.30
2019-06-15T00:24:54.147Z,22.10
2019-06-15T00:27:28.135Z,22.27
2019-06-15T00:30:01.847Z,22.25
2019-06-15T00:32:37.742Z,21.92
2019-06-15T00:35:12.362Z,21.84
2019-06-15T00:37:46.678Z,21.73
2019-06-15T00:40:20.579Z,21.68
2019-06-15T00:42:54.707Z,21.58
2019-06-15T00:45:28.636Z,21.58
2019-06-15T00:48:02.613Z,21.40
2019-06-15T00:50:36.418Z,21.50
2019-06-15T00:53:10.446Z,21.57
2019-06-15T00:55:44.081Z,21.78
2019-06-15T00:58:17.841Z,21.79
2019-06-15T01:00:51.472Z,21.76
2019-06-15T01:03:26.986Z,21.75
2019-06-15T01:06:00.665Z,21.69
2019-06-15T01:08:34.409Z,21.76
2019-06-15T01:11:08.462Z,21.77
2019-06-15T01:13:43.881Z,21.71
2019-06-15T01:16:17.763Z,21.61
2019-06-15T01:18:51.510Z,21.69
2019-06-15T01:21:25.275Z,21.58
2019-06-15T01:24:00.941Z,21.62
2019-06-15T01:26:34.527Z,21.75
2019-06-15T01:29:08.354Z,21.77
2019-06-15T01:31:42.023Z,21.90
2019-06-15T01:34:15.814Z,21.88
2019-06-15T01:36:52.815Z,21.94
2019-06-15T01:39:26.448Z,21.93
2019-06-15T01:42:00.438Z,21.98
2019-06-15T01:44:35.383Z,21.90
2019-06-15T01:47:09.109Z,21.84
2019-06-15T01:49:42.821Z,21.93
2019-06-15T01:52:17.651Z,21.86
2019-06-15T01:54:51.418Z,21.83
2019-06-15T01:57:25.153Z,21.67
2019-06-15T01:59:58.897Z,21.62
2019-06-15T02:02:32.595Z,21.55
2019-06-15T02:05:06.890Z,21.46
2019-06-15T02:07:42.483Z,21.58
2019-06-15T02:10:19.469Z,21.43
2019-06-15T02:12:53.216Z,21.54
2019-06-15T02:15:29.197Z,21.35
2019-06-15T02:18:02.942Z,21.36
2019-06-15T02:20:36.686Z,21.37
2019-06-15T02:23:10.721Z,21.36
2019-06-15T02:25:46.361Z,21.26
2019-06-15T02:28:20.091Z,21.29
2019-06-15T02:30:54.942Z,21.20
2019-06-15T02:33:28.711Z,21.12
2019-06-15T02:36:02.483Z,21.15
2019-06-15T02:38:36.562Z,21.22
2019-06-15T02:41:10.506Z,21.26
2019-06-15T02:43:44.193Z,21.09
2019-06-15T02:46:17.895Z,21.00
2019-06-15T02:48:51.493Z,20.90
2019-06-15T02:51:25.602Z,20.85
2019-06-15T02:53:59.480Z,20.78
2019-06-15T02:56:33.192Z,20.68
2019-06-15T02:59:07.131Z,20.60
2019-06-15T03:01:41.007Z,20.68
2019-06-15T03:04:15.693Z,20.70
2019-06-15T03:06:50.064Z,20.54
2019-06-15T03:09:25.641Z,20.64
2019-06-15T03:12:01.151Z,20.91
2019-06-15T03:14:36.146Z,20.74
2019-06-15T03:17:09.891Z,20.81
2019-06-15T03:19:43.689Z,20.78
2019-06-15T03:22:17.785Z,20.60
2019-06-15T03:24:51.422Z,20.43
2019-06-15T03:27:28.709Z,19.88
2019-06-15T03:30:02.446Z,19.75
2019-06-15T03:32:36.155Z,19.61
2019-06-15T03:35:11.232Z,19.71
2019-06-15T03:37:46.096Z,19.56
2019-06-15T03:40:21.026Z,19.56
2019-06-15T03:42:55.861Z,19.52
2019-06-15T03:45:30.839Z,19.47
2019-06-15T03:48:04.567Z,19.39
2019-06-15T03:50:38.406Z,19.40
2019-06-15T03:53:12.142Z,19.30
2019-06-15T03:55:46.224Z,19.19
2019-06-15T03:58:19.873Z,18.98
2019-06-15T04:01:18.814Z,18.78
2019-06-15T04:03:52.530Z,18.78
2019-06-15T04:06:27.548Z,18.96
2019-06-15T04:09:03.977Z,18.78
2019-06-15T04:11:38.663Z,18.83
2019-06-15T04:14:12.344Z,18.76
2019-06-15T04:16:50.053Z,18.83
2019-06-15T04:19:25.384Z,18.80
2019-06-15T04:21:59.912Z,18.84
2019-06-15T04:24:34.761Z,18.87
2019-06-15T04:27:08.467Z,18.93
2019-06-15T04:29:45.380Z,18.96
2019-06-15T04:32:19.007Z,19.01
2019-06-15T04:34:53.097Z,18.99
2019-06-15T04:37:27.092Z,19.09
2019-06-15T04:40:00.863Z,19.05
2019-06-15T04:42:37.593Z,19.08
2019-06-15T04:45:12.561Z,19.03
2019-06-15T04:47:47.825Z,19.05
2019-06-15T04:50:23.070Z,19.10
2019-06-15T04:52:56.838Z,19.06
2019-06-15T04:55:30.654Z,19.10
2019-06-15T04:58:04.515Z,19.18
2019-06-15T05:00:38.299Z,19.12
2019-06-15T05:03:12.163Z,19.19
2019-06-15T05:05:47.717Z,19.05
2019-06-15T05:08:21.369Z,19.04
2019-06-15T05:11:00.036Z,19.08
2019-06-15T05:13:32.132Z,19.12
2019-06-15T05:16:05.865Z,19.18
2019-06-15T05:18:39.563Z,19.25
2019-06-15T05:21:13.349Z,19.19
2019-06-15T05:23:47.092Z,19.28
2019-06-15T05:26:20.977Z,19.09
2019-06-15T05:28:54.867Z,19.14
2019-06-15T05:31:28.533Z,19.30
2019-06-15T05:34:02.295Z,19.29
2019-06-15T05:36:36.221Z,19.33
2019-06-15T05:39:10.529Z,19.39
2019-06-15T05:41:44.870Z,19.50
2019-06-15T05:44:20.514Z,19.46
2019-06-15T05:46:54.443Z,19.49
2019-06-15T05:49:28.304Z,19.50
2019-06-15T05:52:01.944Z,19.52
2019-06-15T05:54:35.878Z,19.54
2019-06-15T05:57:21.215Z,19.55
2019-06-15T05:59:46.124Z,19.47
2019-06-15T06:02:24.529Z,19.40
2019-06-15T06:04:56.786Z,19.42
2019-06-15T06:07:30.771Z,19.38
2019-06-15T06:10:05.200Z,19.38
2019-06-15T06:12:39.167Z,19.27
2019-06-15T06:15:15.961Z,19.39
2019-06-15T06:17:49.751Z,19.49
2019-06-15T06:20:23.479Z,19.36
2019-06-15T06:22:57.324Z,19.33
2019-06-15T06:25:32.841Z,19.43
2019-06-15T06:28:06.917Z,19.56
2019-06-15T06:30:40.654Z,19.46
2019-06-15T06:33:14.695Z,19.48
2019-06-15T06:35:48.422Z,19.46
2019-06-15T06:38:24.248Z,19.41
2019-06-15T06:40:58.320Z,19.57
2019-06-15T06:43:35.577Z,19.66
2019-06-15T06:46:09.346Z,19.62
2019-06-15T06:48:44.737Z,19.73
2019-06-15T06:51:19.379Z,19.82
2019-06-15T06:53:53.053Z,19.86
2019-06-15T06:56:26.957Z,19.94
2019-06-15T06:59:00.662Z,20.01
2019-06-15T07:01:34.345Z,19.94
2019-06-15T07:04:08.097Z,19.93
2019-06-15T07:06:41.751Z,19.94
2019-06-15T07:09:15.398Z,19.90
2019-06-15T07:11:50.926Z,19.80
2019-06-15T07:14:24.532Z,20.02
2019-06-15T07:16:58.270Z,20.07
2019-06-15T07:19:31.946Z,20.31
2019-06-15T07:22:05.909Z,20.53
2019-06-15T07:24:39.787Z,20.62
2019-06-15T07:27:13.764Z,21.01
2019-06-15T07:29:47.456Z,21.40
2019-06-15T07:32:21.068Z,21.82
2019-06-15T07:34:55.818Z,22.00
2019-06-15T07:37:29.495Z,22.58
2019-06-15T07:40:05.118Z,22.43
2019-06-15T07:42:39.680Z,22.37
2019-06-15T07:45:14.411Z,21.99
2019-06-15T07:47:49.194Z,22.27
2019-06-15T07:50:22.829Z,22.23
2019-06-15T07:52:58.325Z,23.26
2019-06-15T07:55:32.058Z,23.42
2019-06-15T07:58:05.897Z,24.69
2019-06-15T08:00:39.602Z,25.39
2019-06-15T08:03:13.669Z,26.41
2019-06-15T08:05:47.777Z,27.14
2019-06-15T08:08:22.552Z,26.41
2019-06-15T08:10:56.285Z,26.54
2019-06-15T08:13:31.074Z,25.91
2019-06-15T08:16:04.869Z,25.21
2019-06-15T08:18:38.571Z,25.19
2019-06-15T08:21:13.499Z,25.33
2019-06-15T08:23:47.366Z,24.99
2019-06-15T08:26:21.973Z,24.85
2019-06-15T08:28:55.592Z,24.65
2019-06-15T08:31:29.396Z,25.65
2019-06-15T08:34:03.250Z,25.68
2019-06-15T08:36:37.082Z,26.11
2019-06-15T08:39:12.965Z,25.91
2019-06-15T08:41:46.810Z,26.76
2019-06-15T08:44:21.677Z,27.28
2019-06-15T08:46:59.445Z,27.67
2019-06-15T08:49:33.332Z,27.35
2019-06-15T08:52:07.215Z,28.51
2019-06-15T08:54:43.864Z,29.01
2019-06-15T08:57:17.574Z,29.03
2019-06-15T08:59:53.329Z,29.55
2019-06-15T09:02:30.002Z,28.56
2019-06-15T09:05:05.857Z,28.87
2019-06-15T09:07:39.477Z,28.95
2019-06-15T09:10:15.637Z,29.36
2019-06-15T09:12:50.751Z,29.44
2019-06-15T09:15:57.427Z,29.52
2019-06-15T09:18:34.006Z,29.18
2019-06-15T09:21:07.799Z,29.20
2019-06-15T09:23:43.443Z,29.90
2019-06-15T09:26:17.268Z,29.68
2019-06-15T09:28:51.111Z,29.73
2019-06-15T09:31:25.165Z,29.74
2019-06-15T09:33:58.902Z,30.21
2019-06-15T09:36:34.797Z,30.28
2019-06-15T09:39:09.688Z,30.33
2019-06-15T09:41:43.607Z,30.09
2019-06-15T09:44:17.687Z,30.52
2019-06-15T09:46:53.243Z,30.49
2019-06-15T09:49:27.124Z,30.17
2019-06-15T09:52:02.589Z,29.83
2019-06-15T09:54:37.597Z,30.14
2019-06-15T09:57:11.383Z,29.84
2019-06-15T09:59:45.664Z,29.47
2019-06-15T10:02:19.525Z,29.01
2019-06-15T10:04:55.063Z,28.77
2019-06-15T10:07:28.880Z,29.06
2019-06-15T10:10:04.775Z,29.05
2019-06-15T10:12:38.658Z,28.67
2019-06-15T10:15:15.877Z,28.44
2019-06-15T10:17:49.550Z,29.12
2019-06-15T10:20:23.300Z,29.01
2019-06-15T10:22:57.115Z,28.94
2019-06-15T10:25:31.977Z,28.26
2019-06-15T10:28:07.302Z,27.80
2019-06-15T10:30:41.008Z,27.65
2019-06-15T10:33:16.548Z,27.58
2019-06-15T10:35:50.228Z,27.32
2019-06-15T10:38:26.897Z,27.62
2019-06-15T10:41:00.858Z,28.27
2019-06-15T10:43:34.586Z,28.73
2019-06-15T10:46:08.383Z,28.61
2019-06-15T10:48:42.140Z,28.92
2019-06-15T10:51:15.791Z,29.05
2019-06-15T10:53:49.498Z,28.03
2019-06-15T10:56:23.399Z,27.76
2019-06-15T10:58:59.214Z,28.02
2019-06-15T11:01:32.932Z,27.81
2019-06-15T11:04:07.897Z,27.88
2019-06-15T11:06:42.770Z,28.36
2019-06-15T11:09:16.460Z,28.06
2019-06-15T11:11:50.436Z,28.08
2019-06-15T11:14:24.980Z,28.60
2019-06-15T11:17:01.063Z,28.67
2019-06-15T11:19:36.419Z,27.94
2019-06-15T11:22:10.324Z,27.45
2019-06-15T11:24:43.994Z,26.87
2019-06-15T11:27:18.855Z,26.82
2019-06-15T11:29:52.769Z,26.85
2019-06-15T11:32:26.792Z,27.04
2019-06-15T11:35:03.225Z,27.47
2019-06-15T11:37:36.959Z,27.13
2019-06-15T11:40:12.174Z,26.55
2019-06-15T11:42:49.720Z,26.48
2019-06-15T11:45:23.183Z,26.49
2019-06-15T11:47:57.851Z,26.25
2019-06-15T11:50:31.862Z,25.95
2019-06-15T11:53:05.708Z,26.01
2019-06-15T11:55:41.450Z,25.95
2019-06-15T11:58:15.304Z,25.44
2019-06-15T12:00:50.582Z,25.56
2019-06-15T12:03:24.585Z,24.99
2019-06-15T12:05:58.646Z,25.15
2019-06-15T12:08:32.328Z,25.04
2019-06-15T12:11:06.101Z,25.06
2019-06-15T12:13:39.914Z,24.64
2019-06-15T12:16:13.671Z,24.40
2019-06-15T12:18:47.376Z,24.29
2019-06-15T12:21:22.658Z,23.92
2019-06-15T12:23:58.320Z,23.64
2019-06-15T12:26:32.116Z,23.71
2019-06-15T12:29:09.416Z,23.39
2019-06-15T12:31:43.148Z,23.30
2019-06-15T12:34:16.986Z,23.27
2019-06-15T12:36:50.772Z,23.26
2019-06-15T12:39:24.455Z,23.13
2019-06-15T12:41:58.310Z,22.91
2019-06-15T12:44:33.109Z,23.18
2019-06-15T12:47:06.845Z,22.99
2019-06-15T12:49:40.641Z,23.20
2019-06-15T12:52:14.410Z,23.60
2019-06-15T12:54:48.148Z,24.10
2019-06-15T12:57:21.856Z,24.40
2019-06-15T12:59:55.565Z,24.58
2019-06-15T13:02:29.430Z,24.49
2019-06-15T13:05:03.140Z,25.11
2019-06-15T13:07:36.946Z,25.37
2019-06-15T13:10:11.472Z,25.66
2019-06-15T13:12:45.270Z,25.61
2019-06-15T13:15:20.324Z,25.68
2019-06-15T13:17:55.159Z,26.45
2019-06-15T13:20:32.000Z,26.28
2019-06-15T13:23:06.044Z,26.58
2019-06-15T13:25:39.903Z,26.61
2019-06-15T13:28:13.554Z,26.71
2019-06-15T13:30:47.626Z,26.94
2019-06-15T13:33:21.448Z,26.58
2019-06-15T13:35:55.223Z,26.54
2019-06-15T13:38:28.995Z,26.87
2019-06-15T13:41:03.924Z,27.21
2019-06-15T13:43:37.860Z,27.13
2019-06-15T13:46:11.757Z,27.36
2019-06-15T13:48:45.705Z,27.73
2019-06-15T13:51:19.483Z,27.90
2019-06-15T13:53:53.608Z,28.10
2019-06-15T13:56:27.364Z,27.53
2019-06-15T13:59:01.286Z,27.55
2019-06-15T14:01:36.791Z,27.71
2019-06-15T14:04:10.876Z,27.82
2019-06-15T14:06:46.412Z,27.80
2019-06-15T14:09:23.122Z,28.09
2019-06-15T14:11:56.993Z,28.31
2019-06-15T14:14:30.735Z,27.79
2019-06-15T14:17:04.811Z,27.40
2019-06-15T14:19:39.543Z,27.65
2019-06-15T14:22:13.524Z,27.37
2019-06-15T14:24:48.289Z,27.41
2019-06-15T14:27:22.212Z,26.99
2019-06-15T14:29:56.108Z,26.68
2019-06-15T14:32:30.000Z,26.38
2019-06-15T14:35:03.791Z,25.84
2019-06-15T14:37:38.496Z,25.59
2019-06-15T14:40:12.965Z,25.06
2019-06-15T14:42:46.851Z,25.46
2019-06-15T14:45:21.939Z,25.40
2019-06-15T14:47:55.724Z,25.19
2019-06-15T14:50:30.503Z,25.03
2019-06-15T14:53:04.669Z,24.97
2019-06-15T14:55:38.733Z,25.02
2019-06-15T14:58:13.476Z,25.21
2019-06-15T15:00:47.431Z,24.99
2019-06-15T15:03:21.099Z,25.18
2019-06-15T15:05:56.738Z,25.05
2019-06-15T15:08:30.473Z,24.81
2019-06-15T15:11:06.629Z,24.36
2019-06-15T15:13:40.849Z,24.42
2019-06-15T15:16:17.597Z,24.34
2019-06-15T15:18:52.117Z,24.51
2019-06-15T15:21:26.791Z,24.29
2019-06-15T15:24:00.639Z,24.29
2019-06-15T15:26:36.922Z,24.56
2019-06-15T15:29:09.806Z,24.87
2019-06-15T15:31:46.467Z,25.15
2019-06-15T15:34:21.513Z,25.74
2019-06-15T15:36:58.383Z,25.82
2019-06-15T15:39:32.420Z,25.65
2019-06-15T15:42:06.607Z,25.50
2019-06-15T15:44:43.557Z,25.36
2019-06-15T15:47:17.477Z,25.20
2019-06-15T15:49:51.114Z,25.52
2019-06-15T15:52:27.641Z,25.20
2019-06-15T15:55:02.627Z,25.22
2019-06-15T15:57:36.664Z,25.14
2019-06-15T16:00:11.002Z,25.36
2019-06-15T16:02:51.562Z,25.06
2019-06-15T16:05:20.372Z,24.73
2019-06-15T16:07:56.929Z,24.56
2019-06-15T16:10:32.179Z,24.39
2019-06-15T16:13:06.729Z,24.25
2019-06-15T16:15:40.624Z,24.76
2019-06-15T16:18:17.150Z,24.83
2019-06-15T16:20:51.732Z,24.63
2019-06-15T16:23:27.374Z,24.63
2019-06-15T16:26:03.344Z,24.62
2019-06-15T16:28:37.331Z,24.84
2019-06-15T16:31:14.128Z,24.78
2019-06-15T16:33:48.017Z,24.82
2019-06-15T16:36:24.019Z,24.80
2019-06-15T16:38:58.808Z,24.89
2019-06-15T16:41:36.473Z,24.84
2019-06-15T16:44:10.934Z,24.70
2019-06-15T16:46:44.786Z,24.52
2019-06-15T16:49:20.772Z,24.26
2019-06-15T16:51:56.499Z,24.35
2019-06-15T16:54:31.825Z,24.32
2019-06-15T16:57:06.125Z,24.48
2019-06-15T16:59:40.032Z,24.57
2019-06-15T17:02:17.155Z,24.19
2019-06-15T17:04:52.058Z,24.07
2019-06-15T17:07:27.583Z,24.07
2019-06-15T17:10:01.293Z,23.97
2019-06-15T17:12:37.325Z,23.88
2019-06-15T17:15:12.459Z,23.60
2019-06-15T17:17:46.283Z,23.64
2019-06-15T17:20:26.673Z,23.66
2019-06-15T17:23:00.584Z,23.35
2019-06-15T17:25:36.283Z,23.30
2019-06-15T17:28:11.123Z,23.16
2019-06-15T17:30:45.265Z,22.89
2019-06-15T17:33:33.271Z,22.96
2019-06-15T17:36:02.550Z,22.96
2019-06-15T17:38:30.951Z,22.78
2019-06-15T17:41:04.935Z,22.73
2019-06-15T17:43:38.886Z,22.71
2019-06-15T17:46:12.627Z,22.60
2019-06-15T17:48:46.829Z,22.47
2019-06-15T17:51:20.848Z,22.45
2019-06-15T17:53:56.340Z,22.42
2019-06-15T17:56:30.453Z,22.22
2019-06-15T17:59:06.519Z,22.44
2019-06-15T18:01:40.629Z,22.09
2019-06-15T18:04:16.496Z,22.03
2019-06-15T18:06:49.988Z,21.89
2019-06-15T18:09:25.902Z,21.91
2019-06-15T18:12:00.720Z,21.83
2019-06-15T18:14:36.744Z,22.04
2019-06-15T18:17:10.706Z,21.99
2019-06-15T18:19:46.961Z,21.91
2019-06-15T18:22:20.450Z,21.85
2019-06-15T18:24:56.771Z,21.95
2019-06-15T18:27:37.054Z,22.05
2019-06-15T18:30:10.709Z,21.92
2019-06-15T18:32:46.634Z,21.91
2019-06-15T18:35:20.553Z,21.88
2019-06-15T18:37:55.982Z,21.73
2019-06-15T18:40:31.258Z,21.70
2019-06-15T18:43:07.355Z,21.59
2019-06-15T18:45:40.636Z,21.71
2019-06-15T18:48:16.770Z,21.62
2019-06-15T18:50:50.273Z,21.44
2019-06-15T18:53:23.903Z,21.39
2019-06-15T18:55:57.967Z,21.23
2019-06-15T18:58:32.621Z,21.10
2019-06-15T19:01:07.583Z,21.11
2019-06-15T19:03:42.765Z,21.04
2019-06-15T19:06:16.892Z,21.06
2019-06-15T19:08:53.707Z,20.99
2019-06-15T19:13:47.971Z,20.86
2019-06-15T19:16:22.393Z,20.73
2019-06-15T19:18:56.708Z,20.64
2019-06-15T19:21:30.478Z,20.60
2019-06-15T19:24:07.232Z,20.43
2019-06-15T19:26:41.703Z,20.40
2019-06-15T19:29:17.139Z,20.57
2019-06-15T19:31:54.287Z,20.30
2019-06-15T19:34:43.145Z,20.43
2019-06-15T19:37:06.733Z,20.40
2019-06-15T19:39:40.300Z,20.12
2019-06-15T19:42:14.610Z,19.97
2019-06-15T19:44:51.695Z,19.86
2019-06-15T19:47:26.577Z,19.96
2019-06-15T19:50:00.795Z,19.74
2019-06-15T19:52:38.747Z,19.80
2019-06-15T19:55:16.473Z,19.79
2019-06-15T19:57:52.243Z,19.73
2019-06-15T20:00:27.172Z,19.67
2019-06-15T20:03:02.791Z,19.59
2019-06-15T20:05:37.293Z,19.51
2019-06-15T20:08:13.484Z,19.34
2019-06-15T20:10:47.497Z,19.23
2019-06-15T20:13:21.405Z,19.18
2019-06-15T20:15:57.271Z,19.08
2019-06-15T20:18:32.588Z,19.00
2019-06-15T20:21:08.441Z,18.91
2019-06-15T20:23:42.057Z,18.84
2019-06-15T20:26:16.145Z,18.82
2019-06-15T20:28:51.613Z,18.82
2019-06-15T20:31:27.248Z,18.79
2019-06-15T20:34:00.984Z,18.67
2019-06-15T20:36:39.402Z,18.61
2019-06-15T20:39:16.421Z,18.56
2019-06-15T20:41:51.434Z,18.51
2019-06-15T20:44:26.111Z,18.46
2019-06-15T20:46:59.942Z,18.41
2019-06-15T20:49:33.920Z,18.39
2019-06-15T20:52:07.589Z,18.29
2019-06-15T20:54:43.198Z,18.22
2019-06-15T20:57:17.886Z,18.18
2019-06-15T20:59:56.348Z,18.15
2019-06-15T21:02:29.719Z,18.07
2019-06-15T21:05:03.634Z,17.98
2019-06-15T21:07:38.273Z,17.93
2019-06-15T21:10:16.026Z,17.88
2019-06-15T21:12:50.135Z,17.77
2019-06-15T21:15:28.814Z,17.80
2019-06-15T21:18:03.111Z,17.82
2019-06-15T21:20:36.920Z,17.84
2019-06-15T21:23:11.870Z,17.78
2019-06-15T21:25:46.748Z,17.77
2019-06-15T21:28:20.715Z,17.70
2019-06-15T21:30:55.374Z,17.60
2019-06-15T21:33:29.108Z,17.58
2019-06-15T21:36:02.888Z,17.55
2019-06-15T21:41:11.696Z,17.54
2019-06-15T21:43:47.183Z,17.57
2019-06-15T21:46:20.928Z,17.58
2019-06-15T21:48:56.453Z,17.54
2019-06-15T21:51:36.509Z,17.48
2019-06-15T21:54:09.649Z,17.56
2019-06-15T21:56:43.726Z,17.54
2019-06-15T21:59:19.378Z,17.56
2019-06-15T22:01:53.223Z,17.50
2019-06-15T22:04:27.123Z,17.39
2019-06-15T22:07:02.556Z,17.38
2019-06-15T22:09:36.546Z,17.36
2019-06-15T22:12:10.562Z,17.36
2019-06-15T22:14:46.502Z,17.40
2019-06-15T22:17:20.888Z,17.32
2019-06-15T22:19:56.929Z,17.25
2019-06-15T22:22:32.381Z,17.19
2019-06-15T22:25:07.059Z,17.14
2019-06-15T22:27:40.970Z,17.09
2019-06-15T22:30:16.970Z,17.03
2019-06-15T22:32:51.001Z,16.93
2019-06-15T22:35:26.919Z,16.81
2019-06-15T22:38:00.303Z,16.78
2019-06-15T22:40:36.349Z,16.77
2019-06-15T22:43:09.745Z,16.75
2019-06-15T22:45:46.971Z,16.72
2019-06-15T22:48:19.046Z,16.58
2019-06-15T22:50:53.116Z,16.54
2019-06-15T22:53:28.621Z,16.29
2019-06-15T22:56:02.311Z,16.29
2019-06-15T22:58:36.092Z,16.20
2019-06-15T23:01:10.929Z,16.13
2019-06-15T23:03:46.621Z,16.00
2019-06-15T23:06:34.740Z,15.91
2019-06-15T23:08:58.771Z,15.89
2019-06-15T23:11:32.524Z,15.87
2019-06-15T23:14:06.791Z,15.83
2019-06-15T23:16:40.883Z,15.80
2019-06-15T23:19:17.149Z,15.78
2019-06-15T23:21:52.685Z,15.76
2019-06-15T23:24:27.443Z,15.72
2019-06-15T23:27:01.272Z,15.62
2019-06-15T23:29:37.107Z,15.67
2019-06-15T23:32:10.945Z,15.65
2019-06-15T23:34:44.611Z,15.56
2019-06-15T23:37:20.577Z,15.48
2019-06-15T23:40:11.866Z,15.56
2019-06-15T23:42:47.561Z,15.50
2019-06-15T23:45:23.374Z,15.42
2019-06-15T23:47:57.592Z,15.42
2019-06-15T23:50:32.888Z,15.23
2019-06-15T23:53:06.952Z,15.15
2019-06-15T23:55:43.619Z,15.17
2019-06-15T23:58:18.273Z,15.14
